PST,Max TemperatureF,Mean TemperatureF,Min TemperatureF,Max Dew PointF,MeanDew PointF,Min DewpointF,Max Humidity, Mean Humidity, Min Humidity, Max Sea Level PressureIn, Mean Sea Level PressureIn, Min Sea Level PressureIn, Max VisibilityMiles, Mean VisibilityMiles, Min VisibilityMiles, Max Wind SpeedMPH, Mean Wind SpeedMPH, Max Gust SpeedMPH,PrecipitationIn, CloudCover, Events, WindDirDegrees
2013-1-1,43,41,39,37,36,34,86,79,63,30.43,30.34,30.21,,,,39,24,47,0.00,,,132
2013-1-2,45,42,39,36,35,34,73,67,54,30.20,30.11,30.07,,,,40,36,50,0.00,,,136
2013-1-3,45,44,42,36,35,34,77,71,59,30.07,29.98,29.93,,,,37,30,44,0.00,,,135
2013-1-4,45,44,42,41,38,36,85,77,64,30.21,30.10,29.99,,,,40,33,50,0.00,,,128
2013-1-5,46,42,39,41,39,36,89,83,72,30.00,29.92,29.81,,,,50,35,61,0.20,,,135
2013-1-6,43,40,37,39,37,35,92,86,77,29.96,29.88,29.69,,,,41,23,52,0.24,,,123
2013-1-7,46,42,39,42,38,36,93,81,60,30.05,29.86,29.64,,,,40,25,48,0.20,,,179
2013-1-8,45,40,36,40,37,35,93,85,72,30.05,29.66,29.22,,,,51,25,61,0.08,,,124
2013-1-9,42,39,36,38,36,32,92,86,71,29.97,29.72,29.53,,,,21,13,23,0.51,,,289
2013-1-10,41,39,36,35,31,29,83,75,68,30.22,30.16,30.00,,,,21,16,,0.00,,,326
2013-1-11,37,36,34,32,30,29,86,81,71,30.30,30.27,30.22,,,,17,9,,0.00,,,93
2013-1-12,39,36,34,32,30,29,81,76,67,30.43,30.39,30.30,,,,17,12,,0.00,,,106
2013-1-13,41,38,35,39,35,32,95,88,81,30.46,30.44,30.42,,,,13,7,,0.00,,,98
2013-1-14,44,40,37,43,40,38,98,96,92,30.57,30.50,30.44,,,,15,9,18,0.00,,,314
2013-1-15,43,40,38,41,39,38,99,96,93,30.69,30.66,30.59,,,,16,10,,0.00,,,111
2013-1-16,40,39,38,39,38,37,97,93,87,30.67,30.58,30.45,,,,22,15,,0.00,,,129
2013-1-17,43,41,39,38,37,36,92,85,75,30.45,30.32,30.25,,,,26,23,32,0.00,,,135
2013-1-18,43,41,39,39,38,37,93,87,74,30.30,30.27,30.23,,,,21,17,,0.00,,,134
2013-1-19,45,43,41,39,38,38,89,83,67,30.32,30.30,30.28,,,,23,19,,0.00,,,138
2013-1-20,44,42,40,39,37,35,89,83,70,30.36,30.32,30.27,,,,14,8,,0.00,,,134
2013-1-21,46,42,39,39,37,35,92,79,56,30.28,30.08,29.94,,,,24,13,30,0.00,,,136
2013-1-22,48,44,41,38,35,31,75,62,46,29.94,29.84,29.76,,,,38,31,43,0.00,,,141
2013-1-23,46,44,41,40,39,36,92,85,64,30.00,29.85,29.79,,,,33,19,41,0.12,,,124
2013-1-24,43,42,40,40,38,36,92,85,73,30.05,29.86,29.68,,,,53,30,67,0.00,,,123
2013-1-25,44,42,40,40,39,38,89,84,77,29.85,29.80,29.77,,,,38,29,45,0.16,,,129
2013-1-26,44,42,40,40,39,38,93,88,79,29.97,29.89,29.79,,,,23,13,,0.08,,,171
2013-1-27,44,42,39,40,37,35,90,84,74,30.03,29.95,29.91,,,,24,11,23,0.28,,,270
2013-1-28,43,40,38,42,38,35,95,90,83,30.09,30.02,29.97,,,,21,9,24,0.75,,,307
2013-1-29,42,40,39,42,40,37,96,91,82,30.23,30.20,30.11,,,,17,10,21,0.08,,,44
2013-1-30,44,44,43,43,42,42,95,94,90,,,,,,,30,21,,0.08,,,125
2013-1-31,45,44,44,43,43,42,95,93,89,30.32,30.24,30.18,,,,29,21,30,0.04,,,132